sensor_id;sensor_type;location;lat;lon;timestamp;P1;durP1;ratioP1;P2;durP2;ratioP2
30010;SDS011;16851;53.564;8.112;2022-11-25T00:02:52;51.20;;;23.97;;
30010;SDS011;16851;53.564;8.112;2022-11-25T00:07:56;51.67;;;24.40;;
30010;SDS011;16851;53.564;8.112;2022-11-25T00:13:00;65.33;;;26.60;;
30010;SDS011;16851;53.564;8.112;2022-11-25T00:18:03;51.63;;;24.17;;
30010;SDS011;16851;53.564;8.112;2022-11-25T00:23:09;52.03;;;25.07;;
30010;SDS011;16851;53.564;8.112;2022-11-25T00:28:11;52.33;;;22.90;;
30010;SDS011;16851;53.564;8.112;2022-11-25T00:33:13;52.20;;;24.47;;
30010;SDS011;16851;53.564;8.112;2022-11-25T00:38:15;50.03;;;24.10;;
30010;SDS011;16851;53.564;8.112;2022-11-25T00:43:19;43.83;;;22.73;;
30010;SDS011;16851;53.564;8.112;2022-11-25T00:48:39;57.07;;;22.67;;
30010;SDS011;16851;53.564;8.112;2022-11-25T00:53:46;46.77;;;21.87;;
30010;SDS011;16851;53.564;8.112;2022-11-25T00:58:52;52.90;;;23.90;;
30010;SDS011;16851;53.564;8.112;2022-11-25T01:04:02;49.00;;;20.90;;
30010;SDS011;16851;53.564;8.112;2022-11-25T01:09:07;45.03;;;21.50;;
30010;SDS011;16851;53.564;8.112;2022-11-25T01:14:14;44.17;;;20.60;;
30010;SDS011;16851;53.564;8.112;2022-11-25T01:19:16;36.10;;;18.03;;
30010;SDS011;16851;53.564;8.112;2022-11-25T01:24:19;35.10;;;17.63;;
30010;SDS011;16851;53.564;8.112;2022-11-25T01:29:21;44.70;;;17.40;;
30010;SDS011;16851;53.564;8.112;2022-11-25T01:34:27;40.77;;;16.23;;
30010;SDS011;16851;53.564;8.112;2022-11-25T01:39:37;38.17;;;17.03;;
30010;SDS011;16851;53.564;8.112;2022-11-25T01:44:42;34.47;;;16.17;;
30010;SDS011;16851;53.564;8.112;2022-11-25T01:49:48;38.10;;;16.87;;
30010;SDS011;16851;53.564;8.112;2022-11-25T01:54:56;38.73;;;15.67;;
30010;SDS011;16851;53.564;8.112;2022-11-25T02:00:00;34.00;;;14.93;;
30010;SDS011;16851;53.564;8.112;2022-11-25T02:05:10;32.57;;;14.40;;
30010;SDS011;16851;53.564;8.112;2022-11-25T02:10:26;38.27;;;13.47;;
30010;SDS011;16851;53.564;8.112;2022-11-25T02:15:37;28.83;;;12.20;;
30010;SDS011;16851;53.564;8.112;2022-11-25T02:20:39;31.13;;;11.23;;
30010;SDS011;16851;53.564;8.112;2022-11-25T02:25:46;28.87;;;11.07;;
30010;SDS011;16851;53.564;8.112;2022-11-25T02:30:51;37.30;;;10.40;;
30010;SDS011;16851;53.564;8.112;2022-11-25T02:41:02;32.27;;;9.57;;
30010;SDS011;16851;53.564;8.112;2022-11-25T02:51:21;24.60;;;8.93;;
30010;SDS011;16851;53.564;8.112;2022-11-25T02:56:26;19.27;;;8.67;;
30010;SDS011;16851;53.564;8.112;2022-11-25T03:01:31;27.17;;;8.70;;
30010;SDS011;16851;53.564;8.112;2022-11-25T03:06:33;24.53;;;7.57;;
30010;SDS011;16851;53.564;8.112;2022-11-25T03:11:35;30.53;;;8.23;;
30010;SDS011;16851;53.564;8.112;2022-11-25T03:16:55;25.97;;;7.27;;
30010;SDS011;16851;53.564;8.112;2022-11-25T03:22:01;19.37;;;6.43;;
30010;SDS011;16851;53.564;8.112;2022-11-25T03:27:05;22.07;;;7.40;;
30010;SDS011;16851;53.564;8.112;2022-11-25T03:32:10;21.10;;;7.45;;
30010;SDS011;16851;53.564;8.112;2022-11-25T03:37:12;19.27;;;5.53;;
30010;SDS011;16851;53.564;8.112;2022-11-25T03:42:18;25.33;;;5.93;;
30010;SDS011;16851;53.564;8.112;2022-11-25T03:47:22;23.43;;;5.93;;
30010;SDS011;16851;53.564;8.112;2022-11-25T03:52:27;23.10;;;5.90;;
30010;SDS011;16851;53.564;8.112;2022-11-25T03:57:30;20.53;;;5.50;;
30010;SDS011;16851;53.564;8.112;2022-11-25T04:02:34;19.60;;;4.80;;
30010;SDS011;16851;53.564;8.112;2022-11-25T04:07:38;26.83;;;5.90;;
30010;SDS011;16851;53.564;8.112;2022-11-25T04:12:47;18.63;;;5.30;;
30010;SDS011;16851;53.564;8.112;2022-11-25T04:17:53;18.43;;;5.87;;
30010;SDS011;16851;53.564;8.112;2022-11-25T04:23:00;19.87;;;5.33;;
30010;SDS011;16851;53.564;8.112;2022-11-25T04:28:09;21.87;;;5.73;;
30010;SDS011;16851;53.564;8.112;2022-11-25T04:33:11;24.00;;;6.07;;
30010;SDS011;16851;53.564;8.112;2022-11-25T04:38:13;20.20;;;6.17;;
30010;SDS011;16851;53.564;8.112;2022-11-25T04:43:15;21.57;;;5.57;;
30010;SDS011;16851;53.564;8.112;2022-11-25T04:48:23;17.30;;;5.23;;
30010;SDS011;16851;53.564;8.112;2022-11-25T04:53:30;24.57;;;6.03;;
30010;SDS011;16851;53.564;8.112;2022-11-25T04:58:34;23.60;;;6.63;;
30010;SDS011;16851;53.564;8.112;2022-11-25T05:03:55;21.60;;;7.05;;
30010;SDS011;16851;53.564;8.112;2022-11-25T05:09:02;17.43;;;5.63;;
30010;SDS011;16851;53.564;8.112;2022-11-25T05:14:07;23.03;;;5.40;;
30010;SDS011;16851;53.564;8.112;2022-11-25T05:19:17;21.60;;;5.23;;
30010;SDS011;16851;53.564;8.112;2022-11-25T05:24:22;22.33;;;5.73;;
30010;SDS011;16851;53.564;8.112;2022-11-25T05:29:28;22.00;;;4.90;;
30010;SDS011;16851;53.564;8.112;2022-11-25T05:34:33;18.10;;;4.70;;
30010;SDS011;16851;53.564;8.112;2022-11-25T05:39:37;25.10;;;5.80;;
30010;SDS011;16851;53.564;8.112;2022-11-25T05:44:58;22.10;;;4.70;;
30010;SDS011;16851;53.564;8.112;2022-11-25T05:50:03;17.93;;;4.23;;
30010;SDS011;16851;53.564;8.112;2022-11-25T05:55:06;28.77;;;5.73;;
30010;SDS011;16851;53.564;8.112;2022-11-25T06:00:08;28.20;;;5.43;;
30010;SDS011;16851;53.564;8.112;2022-11-25T06:05:19;23.30;;;5.57;;
30010;SDS011;16851;53.564;8.112;2022-11-25T06:10:21;18.43;;;4.80;;
30010;SDS011;16851;53.564;8.112;2022-11-25T06:15:23;22.60;;;5.17;;
30010;SDS011;16851;53.564;8.112;2022-11-25T06:20:30;20.10;;;5.53;;
30010;SDS011;16851;53.564;8.112;2022-11-25T06:25:34;21.27;;;5.47;;
30010;SDS011;16851;53.564;8.112;2022-11-25T06:30:37;21.20;;;6.23;;
30010;SDS011;16851;53.564;8.112;2022-11-25T06:36:11;22.30;;;5.03;;
30010;SDS011;16851;53.564;8.112;2022-11-25T06:41:17;21.47;;;5.60;;
30010;SDS011;16851;53.564;8.112;2022-11-25T06:46:23;25.77;;;5.47;;
30010;SDS011;16851;53.564;8.112;2022-11-25T06:51:26;22.27;;;5.40;;
30010;SDS011;16851;53.564;8.112;2022-11-25T06:56:32;24.00;;;6.20;;
30010;SDS011;16851;53.564;8.112;2022-11-25T07:01:34;25.37;;;6.40;;
30010;SDS011;16851;53.564;8.112;2022-11-25T07:06:38;20.90;;;5.77;;
30010;SDS011;16851;53.564;8.112;2022-11-25T07:11:42;19.87;;;5.80;;
30010;SDS011;16851;53.564;8.112;2022-11-25T07:16:46;28.97;;;6.53;;
30010;SDS011;16851;53.564;8.112;2022-11-25T07:21:48;23.90;;;6.27;;
30010;SDS011;16851;53.564;8.112;2022-11-25T07:26:52;26.20;;;7.37;;
30010;SDS011;16851;53.564;8.112;2022-11-25T07:31:56;19.37;;;7.07;;
30010;SDS011;16851;53.564;8.112;2022-11-25T07:37:08;21.77;;;7.27;;
30010;SDS011;16851;53.564;8.112;2022-11-25T07:42:12;18.47;;;6.03;;
30010;SDS011;16851;53.564;8.112;2022-11-25T07:47:14;28.43;;;6.67;;
30010;SDS011;16851;53.564;8.112;2022-11-25T07:52:18;23.40;;;6.97;;
30010;SDS011;16851;53.564;8.112;2022-11-25T07:57:22;25.17;;;7.50;;
30010;SDS011;16851;53.564;8.112;2022-11-25T08:02:27;26.13;;;7.43;;
30010;SDS011;16851;53.564;8.112;2022-11-25T08:07:31;31.87;;;7.40;;
30010;SDS011;16851;53.564;8.112;2022-11-25T08:12:39;21.57;;;7.20;;
30010;SDS011;16851;53.564;8.112;2022-11-25T08:17:41;26.03;;;8.17;;
30010;SDS011;16851;53.564;8.112;2022-11-25T08:22:43;24.67;;;8.30;;
30010;SDS011;16851;53.564;8.112;2022-11-25T08:27:45;27.67;;;8.80;;
30010;SDS011;16851;53.564;8.112;2022-11-25T08:32:52;31.03;;;9.40;;
30010;SDS011;16851;53.564;8.112;2022-11-25T08:38:03;29.43;;;9.13;;
30010;SDS011;16851;53.564;8.112;2022-11-25T08:43:12;36.90;;;9.77;;
30010;SDS011;16851;53.564;8.112;2022-11-25T08:48:19;26.33;;;9.43;;
30010;SDS011;16851;53.564;8.112;2022-11-25T08:53:22;26.47;;;9.30;;
30010;SDS011;16851;53.564;8.112;2022-11-25T08:58:27;29.57;;;9.07;;
30010;SDS011;16851;53.564;8.112;2022-11-25T09:03:39;30.83;;;10.30;;
30010;SDS011;16851;53.564;8.112;2022-11-25T09:08:46;24.97;;;8.93;;
30010;SDS011;16851;53.564;8.112;2022-11-25T09:13:50;32.07;;;10.33;;
30010;SDS011;16851;53.564;8.112;2022-11-25T09:18:55;28.70;;;9.53;;
30010;SDS011;16851;53.564;8.112;2022-11-25T09:24:04;23.67;;;9.03;;
30010;SDS011;16851;53.564;8.112;2022-11-25T09:29:07;32.00;;;10.27;;
30010;SDS011;16851;53.564;8.112;2022-11-25T09:34:11;32.30;;;10.27;;
30010;SDS011;16851;53.564;8.112;2022-11-25T09:39:14;27.77;;;10.13;;
30010;SDS011;16851;53.564;8.112;2022-11-25T10:00:11;32.13;;;11.17;;
30010;SDS011;16851;53.564;8.112;2022-11-25T10:05:15;21.77;;;9.67;;
30010;SDS011;16851;53.564;8.112;2022-11-25T10:10:24;24.00;;;10.33;;
30010;SDS011;16851;53.564;8.112;2022-11-25T10:15:31;30.03;;;10.83;;
30010;SDS011;16851;53.564;8.112;2022-11-25T10:20:36;26.97;;;11.50;;
30010;SDS011;16851;53.564;8.112;2022-11-25T10:25:46;27.07;;;11.87;;
30010;SDS011;16851;53.564;8.112;2022-11-25T10:31:11;26.63;;;10.97;;
30010;SDS011;16851;53.564;8.112;2022-11-25T10:36:20;25.97;;;11.73;;
30010;SDS011;16851;53.564;8.112;2022-11-25T10:41:42;26.83;;;11.93;;
30010;SDS011;16851;53.564;8.112;2022-11-25T10:47:35;26.87;;;11.23;;
30010;SDS011;16851;53.564;8.112;2022-11-25T10:52:22;25.27;;;11.83;;
30010;SDS011;16851;53.564;8.112;2022-11-25T10:57:30;23.90;;;10.67;;
30010;SDS011;16851;53.564;8.112;2022-11-25T11:02:37;21.00;;;10.63;;
30010;SDS011;16851;53.564;8.112;2022-11-25T11:07:43;24.23;;;10.87;;
30010;SDS011;16851;53.564;8.112;2022-11-25T11:18:14;24.07;;;9.83;;
30010;SDS011;16851;53.564;8.112;2022-11-25T11:23:25;30.17;;;10.70;;
30010;SDS011;16851;53.564;8.112;2022-11-25T11:33:52;25.23;;;10.13;;
30010;SDS011;16851;53.564;8.112;2022-11-25T11:44:45;27.47;;;12.60;;
30010;SDS011;16851;53.564;8.112;2022-11-25T11:50:22;24.50;;;12.67;;
30010;SDS011;16851;53.564;8.112;2022-11-25T12:06:30;23.30;;;10.13;;
30010;SDS011;16851;53.564;8.112;2022-11-25T12:11:36;22.73;;;9.37;;
30010;SDS011;16851;53.564;8.112;2022-11-25T12:16:46;31.53;;;10.03;;
30010;SDS011;16851;53.564;8.112;2022-11-25T12:21:56;21.50;;;8.93;;
30010;SDS011;16851;53.564;8.112;2022-11-25T12:27:07;17.43;;;7.10;;
30010;SDS011;16851;53.564;8.112;2022-11-25T12:38:11;16.52;;;6.43;;
30010;SDS011;16851;53.564;8.112;2022-11-25T12:48:39;19.10;;;6.80;;
30010;SDS011;16851;53.564;8.112;2022-11-25T12:53:49;17.55;;;6.13;;
30010;SDS011;16851;53.564;8.112;2022-11-25T13:10:42;17.53;;;6.47;;
30010;SDS011;16851;53.564;8.112;2022-11-25T13:15:48;18.03;;;6.40;;
30010;SDS011;16851;53.564;8.112;2022-11-25T13:20:53;18.27;;;6.53;;
30010;SDS011;16851;53.564;8.112;2022-11-25T13:31:31;15.57;;;5.38;;
30010;SDS011;16851;53.564;8.112;2022-11-25T13:37:33;17.00;;;5.82;;
30010;SDS011;16851;53.564;8.112;2022-11-25T13:42:43;15.35;;;5.28;;
30010;SDS011;16851;53.564;8.112;2022-11-25T13:47:49;15.77;;;5.65;;
30010;SDS011;16851;53.564;8.112;2022-11-25T13:58:35;18.55;;;5.78;;
30010;SDS011;16851;53.564;8.112;2022-11-25T14:03:51;19.25;;;5.57;;
30010;SDS011;16851;53.564;8.112;2022-11-25T14:09:12;24.25;;;8.50;;
30010;SDS011;16851;53.564;8.112;2022-11-25T14:25:56;24.10;;;7.10;;
30010;SDS011;16851;53.564;8.112;2022-11-25T14:31:23;16.08;;;6.35;;
30010;SDS011;16851;53.564;8.112;2022-11-25T14:36:42;19.83;;;6.13;;
30010;SDS011;16851;53.564;8.112;2022-11-25T14:42:00;21.20;;;7.10;;
30010;SDS011;16851;53.564;8.112;2022-11-25T14:47:07;20.87;;;6.50;;
30010;SDS011;16851;53.564;8.112;2022-11-25T14:52:16;19.00;;;6.90;;
30010;SDS011;16851;53.564;8.112;2022-11-25T14:57:31;21.27;;;6.63;;
30010;SDS011;16851;53.564;8.112;2022-11-25T15:02:38;20.83;;;6.10;;
30010;SDS011;16851;53.564;8.112;2022-11-25T15:07:52;21.97;;;6.80;;
30010;SDS011;16851;53.564;8.112;2022-11-25T15:12:59;22.17;;;6.93;;
30010;SDS011;16851;53.564;8.112;2022-11-25T15:18:16;16.37;;;5.73;;
30010;SDS011;16851;53.564;8.112;2022-11-25T15:23:27;23.73;;;6.63;;
30010;SDS011;16851;53.564;8.112;2022-11-25T15:28:36;19.67;;;6.70;;
30010;SDS011;16851;53.564;8.112;2022-11-25T15:33:40;20.33;;;6.93;;
30010;SDS011;16851;53.564;8.112;2022-11-25T15:38:44;24.47;;;8.53;;
30010;SDS011;16851;53.564;8.112;2022-11-25T15:43:49;23.23;;;8.90;;
30010;SDS011;16851;53.564;8.112;2022-11-25T15:48:57;24.57;;;9.20;;
30010;SDS011;16851;53.564;8.112;2022-11-25T16:04:39;24.23;;;8.77;;
30010;SDS011;16851;53.564;8.112;2022-11-25T16:09:48;28.57;;;11.43;;
30010;SDS011;16851;53.564;8.112;2022-11-25T16:14:51;18.70;;;8.47;;
30010;SDS011;16851;53.564;8.112;2022-11-25T16:19:53;22.27;;;7.87;;
30010;SDS011;16851;53.564;8.112;2022-11-25T16:24:59;24.13;;;6.77;;
30010;SDS011;16851;53.564;8.112;2022-11-25T16:35:11;25.80;;;7.17;;
30010;SDS011;16851;53.564;8.112;2022-11-25T16:40:19;23.53;;;8.07;;
30010;SDS011;16851;53.564;8.112;2022-11-25T16:45:21;24.10;;;7.57;;
30010;SDS011;16851;53.564;8.112;2022-11-25T16:50:25;18.63;;;5.70;;
30010;SDS011;16851;53.564;8.112;2022-11-25T16:55:31;21.20;;;5.10;;
30010;SDS011;16851;53.564;8.112;2022-11-25T17:00:33;28.97;;;6.03;;
30010;SDS011;16851;53.564;8.112;2022-11-25T17:05:35;24.67;;;6.60;;
30010;SDS011;16851;53.564;8.112;2022-11-25T17:10:39;23.33;;;7.10;;
30010;SDS011;16851;53.564;8.112;2022-11-25T17:15:41;27.10;;;6.87;;
30010;SDS011;16851;53.564;8.112;2022-11-25T17:20:49;23.07;;;7.57;;
30010;SDS011;16851;53.564;8.112;2022-11-25T17:25:53;30.60;;;6.53;;
30010;SDS011;16851;53.564;8.112;2022-11-25T17:30:55;27.13;;;5.83;;
30010;SDS011;16851;53.564;8.112;2022-11-25T17:36:03;20.30;;;6.37;;
30010;SDS011;16851;53.564;8.112;2022-11-25T17:41:09;22.87;;;5.80;;
30010;SDS011;16851;53.564;8.112;2022-11-25T17:46:14;29.43;;;6.30;;
30010;SDS011;16851;53.564;8.112;2022-11-25T17:51:20;24.00;;;6.17;;
30010;SDS011;16851;53.564;8.112;2022-11-25T17:56:24;22.90;;;6.10;;
30010;SDS011;16851;53.564;8.112;2022-11-25T18:01:29;25.67;;;7.40;;
30010;SDS011;16851;53.564;8.112;2022-11-25T18:06:31;31.40;;;7.33;;
30010;SDS011;16851;53.564;8.112;2022-11-25T18:11:33;23.13;;;5.90;;
30010;SDS011;16851;53.564;8.112;2022-11-25T18:16:37;25.40;;;6.23;;
30010;SDS011;16851;53.564;8.112;2022-11-25T18:21:42;33.60;;;6.57;;
30010;SDS011;16851;53.564;8.112;2022-11-25T18:26:47;24.23;;;6.60;;
30010;SDS011;16851;53.564;8.112;2022-11-25T18:31:53;21.90;;;6.67;;
30010;SDS011;16851;53.564;8.112;2022-11-25T18:36:58;34.67;;;7.53;;
30010;SDS011;16851;53.564;8.112;2022-11-25T18:42:02;30.03;;;7.07;;
30010;SDS011;16851;53.564;8.112;2022-11-25T18:47:11;26.93;;;6.37;;
30010;SDS011;16851;53.564;8.112;2022-11-25T18:52:18;25.87;;;8.80;;
30010;SDS011;16851;53.564;8.112;2022-11-25T18:57:24;25.13;;;8.43;;
30010;SDS011;16851;53.564;8.112;2022-11-25T19:02:26;31.20;;;8.70;;
30010;SDS011;16851;53.564;8.112;2022-11-25T19:07:30;34.67;;;9.03;;
30010;SDS011;16851;53.564;8.112;2022-11-25T19:12:33;38.50;;;9.30;;
30010;SDS011;16851;53.564;8.112;2022-11-25T19:17:37;34.90;;;8.50;;
30010;SDS011;16851;53.564;8.112;2022-11-25T19:22:39;32.90;;;9.50;;
30010;SDS011;16851;53.564;8.112;2022-11-25T19:28:02;40.90;;;10.90;;
30010;SDS011;16851;53.564;8.112;2022-11-25T19:33:02;43.70;;;11.63;;
30010;SDS011;16851;53.564;8.112;2022-11-25T19:38:12;32.63;;;10.80;;
30010;SDS011;16851;53.564;8.112;2022-11-25T19:43:22;32.40;;;10.10;;
30010;SDS011;16851;53.564;8.112;2022-11-25T19:48:27;34.00;;;12.00;;
30010;SDS011;16851;53.564;8.112;2022-11-25T19:53:39;46.20;;;12.87;;
30010;SDS011;16851;53.564;8.112;2022-11-25T19:58:40;47.90;;;14.27;;
30010;SDS011;16851;53.564;8.112;2022-11-25T20:03:48;39.20;;;14.67;;
30010;SDS011;16851;53.564;8.112;2022-11-25T20:08:52;38.40;;;12.47;;
30010;SDS011;16851;53.564;8.112;2022-11-25T20:14:00;43.73;;;13.63;;
30010;SDS011;16851;53.564;8.112;2022-11-25T20:19:04;27.80;;;11.30;;
30010;SDS011;16851;53.564;8.112;2022-11-25T20:24:11;40.57;;;15.33;;
30010;SDS011;16851;53.564;8.112;2022-11-25T20:29:19;40.93;;;11.67;;
30010;SDS011;16851;53.564;8.112;2022-11-25T20:34:30;45.57;;;15.13;;
30010;SDS011;16851;53.564;8.112;2022-11-25T20:39:42;49.77;;;16.00;;
30010;SDS011;16851;53.564;8.112;2022-11-25T20:44:45;43.03;;;15.33;;
30010;SDS011;16851;53.564;8.112;2022-11-25T20:49:47;62.30;;;25.13;;
30010;SDS011;16851;53.564;8.112;2022-11-25T20:54:51;65.93;;;27.23;;
30010;SDS011;16851;53.564;8.112;2022-11-25T20:59:58;55.87;;;24.40;;
30010;SDS011;16851;53.564;8.112;2022-11-25T21:05:05;52.37;;;19.43;;
30010;SDS011;16851;53.564;8.112;2022-11-25T21:10:19;55.50;;;21.30;;
30010;SDS011;16851;53.564;8.112;2022-11-25T21:15:27;58.67;;;31.47;;
30010;SDS011;16851;53.564;8.112;2022-11-25T21:20:30;45.13;;;20.87;;
30010;SDS011;16851;53.564;8.112;2022-11-25T21:25:32;52.83;;;19.00;;
30010;SDS011;16851;53.564;8.112;2022-11-25T21:30:35;42.67;;;18.60;;
30010;SDS011;16851;53.564;8.112;2022-11-25T21:35:41;46.13;;;17.53;;
30010;SDS011;16851;53.564;8.112;2022-11-25T21:40:46;65.67;;;22.27;;
30010;SDS011;16851;53.564;8.112;2022-11-25T21:45:57;60.33;;;25.90;;
30010;SDS011;16851;53.564;8.112;2022-11-25T21:51:04;55.47;;;22.93;;
30010;SDS011;16851;53.564;8.112;2022-11-25T21:56:16;60.90;;;25.60;;
30010;SDS011;16851;53.564;8.112;2022-11-25T22:01:31;52.70;;;22.20;;
30010;SDS011;16851;53.564;8.112;2022-11-25T22:06:40;40.50;;;20.10;;
30010;SDS011;16851;53.564;8.112;2022-11-25T22:11:47;54.50;;;19.37;;
30010;SDS011;16851;53.564;8.112;2022-11-25T22:16:55;36.53;;;14.90;;
30010;SDS011;16851;53.564;8.112;2022-11-25T22:22:00;40.70;;;14.83;;
30010;SDS011;16851;53.564;8.112;2022-11-25T22:27:01;44.97;;;17.93;;
30010;SDS011;16851;53.564;8.112;2022-11-25T22:32:13;47.97;;;17.33;;
30010;SDS011;16851;53.564;8.112;2022-11-25T22:37:17;48.43;;;17.47;;
30010;SDS011;16851;53.564;8.112;2022-11-25T22:42:25;64.47;;;19.63;;
30010;SDS011;16851;53.564;8.112;2022-11-25T22:47:42;72.47;;;21.80;;
30010;SDS011;16851;53.564;8.112;2022-11-25T22:52:49;92.27;;;21.77;;
30010;SDS011;16851;53.564;8.112;2022-11-25T22:57:54;57.10;;;18.13;;
30010;SDS011;16851;53.564;8.112;2022-11-25T23:02:59;46.93;;;15.87;;
30010;SDS011;16851;53.564;8.112;2022-11-25T23:08:10;69.43;;;21.10;;
30010;SDS011;16851;53.564;8.112;2022-11-25T23:13:14;53.67;;;15.50;;
30010;SDS011;16851;53.564;8.112;2022-11-25T23:18:24;65.23;;;18.53;;
30010;SDS011;16851;53.564;8.112;2022-11-25T23:23:40;77.93;;;21.67;;
30010;SDS011;16851;53.564;8.112;2022-11-25T23:28:44;75.93;;;21.30;;
30010;SDS011;16851;53.564;8.112;2022-11-25T23:33:49;48.17;;;16.17;;
30010;SDS011;16851;53.564;8.112;2022-11-25T23:38:54;45.20;;;15.03;;
30010;SDS011;16851;53.564;8.112;2022-11-25T23:44:11;45.00;;;13.73;;
30010;SDS011;16851;53.564;8.112;2022-11-25T23:49:50;66.23;;;16.70;;
30010;SDS011;16851;53.564;8.112;2022-11-25T23:54:47;44.40;;;15.40;;
30010;SDS011;16851;53.564;8.112;2022-11-25T23:59:54;50.07;;;15.60;;
